Time;durP1;ratioP1;P1;durP2;ratioP2;P2;SDS_P1;SDS_P2;PMS_P1;PMS_P2;Temp;Humidity;BMP_temperature;BMP_pressure;BME280_temperature;BME280_humidity;BME280_pressure;Samples;Min_cycle;Max_cycle;Signal;HPM_P1;HPM_P2
2023/02/14 00:00:29;;;;;;;42.28;23.70;;;2.80;99.90;;;;;;5088602;28;20136;-80
2023/02/14 00:02:56;;;;;;;45.22;23.42;;;2.70;99.90;;;;;;5083881;28;20131;-81
2023/02/14 00:05:22;;;;;;;48.72;23.05;;;2.70;99.90;;;;;;5083339;28;20040;-80
2023/02/14 00:07:49;;;;;;;44.78;22.88;;;2.70;99.90;;;;;;5084861;28;20072;-79
2023/02/14 00:10:16;;;;;;;45.08;23.35;;;2.70;99.90;;;;;;5089536;28;20303;-80
2023/02/14 00:12:43;;;;;;;44.20;24.40;;;2.70;99.90;;;;;;5091353;28;20402;-80
2023/02/14 00:15:22;;;;;;;40.63;22.20;;;2.70;99.90;;;;;;5086660;28;20131;-80
2023/02/14 00:17:54;;;;;;;36.95;22.83;;;2.60;99.90;;;;;;5082248;28;20048;-80
2023/02/14 00:20:22;;;;;;;47.03;24.35;;;2.60;99.90;;;;;;5081714;28;20405;-80
2023/02/14 00:22:48;;;;;;;38.92;22.25;;;2.60;99.90;;;;;;5087687;28;20041;-80
2023/02/14 00:25:15;;;;;;;57.38;22.00;;;2.50;99.90;;;;;;5089038;28;20070;-80
2023/02/14 00:27:42;;;;;;;47.35;24.17;;;2.50;99.90;;;;;;5093511;28;20046;-81
2023/02/14 00:30:11;;;;;;;52.05;24.35;;;2.50;99.90;;;;;;5084060;28;20053;-81
2023/02/14 00:32:39;;;;;;;34.05;22.65;;;2.50;99.90;;;;;;5080360;28;20045;-80
2023/02/14 00:35:07;;;;;;;46.05;23.02;;;2.50;99.90;;;;;;5083490;28;20052;-80
2023/02/14 00:37:34;;;;;;;42.95;21.80;;;2.50;99.90;;;;;;5087513;28;20044;-80
2023/02/14 00:40:01;;;;;;;42.30;22.63;;;2.40;99.90;;;;;;5089707;28;20497;-80
2023/02/14 00:42:27;;;;;;;36.30;20.73;;;2.40;99.90;;;;;;5090714;28;20035;-80
2023/02/14 00:44:54;;;;;;;56.83;22.60;;;2.40;99.90;;;;;;5082107;28;20041;-80
2023/02/14 00:47:21;;;;;;;52.58;21.20;;;2.40;99.90;;;;;;5086203;28;20046;-80
2023/02/14 00:49:48;;;;;;;50.78;23.23;;;2.30;99.90;;;;;;5083267;28;20068;-80
2023/02/14 00:52:14;;;;;;;56.72;22.60;;;2.30;99.90;;;;;;5088713;28;20083;-80
2023/02/14 00:54:41;;;;;;;39.20;21.98;;;2.30;99.90;;;;;;5093701;28;20055;-80
2023/02/14 00:57:08;;;;;;;37.38;22.48;;;2.30;99.90;;;;;;5098070;28;20208;-80
2023/02/14 00:59:34;;;;;;;41.30;23.08;;;2.30;99.90;;;;;;5087591;28;20047;-81
2023/02/14 01:02:01;;;;;;;35.35;22.00;;;2.20;99.90;;;;;;5096394;28;20048;-80
2023/02/14 01:04:28;;;;;;;58.50;22.30;;;2.20;99.90;;;;;;5100555;28;20044;-80
2023/02/14 01:06:55;;;;;;;33.58;21.55;;;2.20;99.90;;;;;;5097671;28;20074;-80
2023/02/14 01:09:21;;;;;;;41.85;24.00;;;2.20;99.90;;;;;;5104405;28;20040;-80
2023/02/14 01:11:48;;;;;;;38.75;22.75;;;2.20;99.90;;;;;;5093150;28;20049;-80
2023/02/14 01:14:15;;;;;;;38.38;22.27;;;2.20;99.90;;;;;;5090202;28;20040;-80
2023/02/14 01:16:41;;;;;;;38.35;21.42;;;2.10;99.90;;;;;;5083230;28;20086;-80
2023/02/14 01:19:08;;;;;;;36.35;21.23;;;2.20;99.90;;;;;;5087880;28;20052;-80
2023/02/14 01:21:35;;;;;;;42.40;21.75;;;2.20;99.90;;;;;;5088214;28;20040;-80
2023/02/14 01:24:05;;;;;;;41.58;21.33;;;2.20;99.90;;;;;;5093428;28;20443;-80
2023/02/14 01:26:33;;;;;;;44.28;21.20;;;2.20;99.90;;;;;;5085054;28;20051;-81
2023/02/14 01:28:59;;;;;;;33.45;21.08;;;2.10;99.90;;;;;;5087078;28;20050;-80
2023/02/14 01:31:29;;;;;;;44.03;20.60;;;2.10;99.90;;;;;;5086720;28;20135;-80
2023/02/14 01:33:56;;;;;;;41.10;21.57;;;2.10;99.90;;;;;;5100779;28;20180;-81
2023/02/14 01:36:32;;;;;;;52.92;21.42;;;2.10;99.90;;;;;;5091473;28;20044;-81
2023/02/14 01:39:02;;;;;;;46.10;21.95;;;2.10;99.90;;;;;;5086780;28;20084;-81
2023/02/14 01:41:32;;;;;;;37.65;20.67;;;2.10;99.90;;;;;;5075886;28;20084;-81
2023/02/14 01:44:27;;;;;;;58.17;21.80;;;2.10;99.90;;;;;;5071531;28;20508;-80
2023/02/14 01:46:55;;;;;;;28.50;18.83;;;2.10;99.90;;;;;;5058734;28;20045;-80
2023/02/14 01:49:34;;;;;;;31.92;18.92;;;2.00;99.90;;;;;;5091563;28;20040;-81
2023/02/14 01:52:16;;;;;;;42.43;20.53;;;2.00;99.90;;;;;;5090270;28;20048;-81
2023/02/14 01:54:56;;;;;;;45.38;19.73;;;1.90;99.90;;;;;;5074836;28;20072;-80
2023/02/14 01:57:25;;;;;;;;;;;1.90;99.90;;;;;;5080914;28;20048;-80
2023/02/14 02:00:55;;;;;;;26.45;17.83;;;1.90;99.90;;;;;;5083771;28;20011;-80
2023/02/14 02:02:43;;;;;;;26.30;17.83;;;1.90;99.90;;;;;;5088669;28;20086;-80
2023/02/14 02:05:10;;;;;;;23.70;16.38;;;1.80;99.90;;;;;;5092545;28;20059;-80
2023/02/14 02:07:38;;;;;;;29.17;18.50;;;1.80;99.90;;;;;;5089217;28;20080;-80
2023/02/14 02:10:06;;;;;;;30.27;18.45;;;1.70;99.90;;;;;;5078770;28;20045;-80
2023/02/14 02:12:34;;;;;;;29.42;17.73;;;1.70;99.90;;;;;;5085380;28;20132;-80
2023/02/14 02:15:02;;;;;;;24.52;17.80;;;1.70;99.90;;;;;;5088405;28;20050;-80
2023/02/14 02:18:05;;;;;;;23.33;16.27;;;1.60;99.90;;;;;;5089519;28;20076;-80
2023/02/14 02:21:22;;;;;;;24.70;16.58;;;1.60;99.90;;;;;;5073700;28;20051;-80
2023/02/14 02:24:04;;;;;;;22.45;16.02;;;1.60;99.90;;;;;;5076965;28;20123;-80
2023/02/14 02:27:02;;;;;;;22.33;15.80;;;1.50;99.90;;;;;;5079525;28;20044;-80
2023/02/14 02:30:03;;;;;;;21.25;14.30;;;1.50;99.90;;;;;;5085163;28;20075;-81
2023/02/14 02:32:54;;;;;;;23.80;16.20;;;1.50;99.90;;;;;;5091146;28;20048;-80
2023/02/14 02:35:49;;;;;;;23.98;16.17;;;1.40;99.90;;;;;;5096562;28;20040;-80
2023/02/14 02:38:23;;;;;;;21.35;14.98;;;1.40;99.90;;;;;;5089404;28;20127;-80
2023/02/14 02:41:23;;;;;;;21.15;14.82;;;1.40;99.90;;;;;;5086563;28;20076;-79
2023/02/14 02:44:07;;;;;;;23.13;15.98;;;1.40;99.90;;;;;;5067640;28;20051;-80
2023/02/14 02:46:50;;;;;;;23.88;15.98;;;1.30;99.90;;;;;;5092381;28;20048;-80
2023/02/14 02:53:07;;;;;;;23.88;15.55;;;1.30;99.90;;;;;;5082012;28;20128;-80
2023/02/14 02:58:34;;;;;;;27.63;16.92;;;1.20;99.90;;;;;;5091476;28;20126;-80
2023/02/14 03:01:11;;;;;;;27.42;17.02;;;1.20;99.90;;;;;;5088661;28;20417;-80
2023/02/14 03:06:25;;;;;;;33.33;19.83;;;1.10;99.90;;;;;;5081521;28;20043;-80
2023/02/14 03:08:51;;;;;;;36.83;20.25;;;1.20;99.90;;;;;;5084203;28;20123;-79
2023/02/14 03:11:18;;;;;;;33.25;19.48;;;1.20;99.90;;;;;;5083486;28;20119;-80
2023/02/14 03:14:16;;;;;;;33.65;18.83;;;1.20;99.90;;;;;;5089303;28;20123;-80
2023/02/14 03:17:06;;;;;;;86.93;21.85;;;1.10;99.90;;;;;;5092552;28;20398;-80
2023/02/14 03:22:49;;;;;;;43.25;22.42;;;1.20;99.90;;;;;;5087887;28;20131;-80
2023/02/14 03:25:40;;;;;;;77.97;18.38;;;1.20;99.90;;;;;;5089687;28;20048;-80
2023/02/14 03:28:27;;;;;;;31.25;16.98;;;1.20;99.90;;;;;;5090490;28;20127;-81
2023/02/14 03:31:05;;;;;;;38.13;21.27;;;1.30;99.90;;;;;;5091334;28;20048;-80
2023/02/14 03:33:38;;;;;;;43.53;23.60;;;1.30;99.90;;;;;;5075973;28;20072;-80
2023/02/14 03:36:34;;;;;;;40.25;23.50;;;1.30;99.90;;;;;;5081228;28;20059;-80
2023/02/14 03:39:06;;;;;;;51.85;22.63;;;1.30;99.90;;;;;;5077452;28;20059;-80
2023/02/14 03:41:40;;;;;;;42.15;22.48;;;1.30;99.90;;;;;;5088512;28;20071;-80
2023/02/14 03:44:10;;;;;;;41.35;22.80;;;1.30;99.90;;;;;;5094067;28;20047;-80
2023/02/14 03:46:50;;;;;;;46.42;22.33;;;1.30;99.90;;;;;;5081167;28;20047;-80
2023/02/14 03:49:27;;;;;;;45.08;22.40;;;1.30;99.90;;;;;;5082051;28;20039;-80
2023/02/14 03:51:57;;;;;;;53.58;20.92;;;1.30;99.90;;;;;;5084535;28;20126;-80
2023/02/14 03:54:25;;;;;;;60.28;22.33;;;1.30;99.90;;;;;;5083957;28;20043;-80
2023/02/14 03:57:03;;;;;;;61.30;23.80;;;1.30;99.90;;;;;;5089676;28;20409;-80
2023/02/14 03:59:30;;;;;;;77.45;23.65;;;1.40;99.90;;;;;;5077069;28;20133;-81
2023/02/14 04:02:06;;;;;;;58.72;21.65;;;1.40;99.90;;;;;;5075478;28;20044;-80
2023/02/14 04:04:37;;;;;;;56.70;21.65;;;1.40;99.90;;;;;;5079667;28;20131;-81
2023/02/14 04:07:23;;;;;;;38.08;20.42;;;1.40;99.90;;;;;;5086886;28;20048;-81
2023/02/14 04:09:50;;;;;;;61.42;21.90;;;1.40;99.90;;;;;;5088381;28;20046;-81
2023/02/14 04:12:18;;;;;;;61.38;22.05;;;1.40;99.90;;;;;;5093577;28;20044;-81
2023/02/14 04:15:01;;;;;;;94.63;22.35;;;1.40;99.90;;;;;;5089234;28;20735;-80
2023/02/14 04:20:13;;;;;;;89.70;25.10;;;1.50;99.90;;;;;;5083505;28;20147;-80
2023/02/14 04:22:40;;;;;;;106.53;24.58;;;1.50;99.90;;;;;;5084868;28;20046;-81
2023/02/14 04:25:06;;;;;;;93.68;26.40;;;1.50;99.90;;;;;;5087025;28;20040;-81
2023/02/14 04:27:33;;;;;;;114.43;25.52;;;1.50;99.90;;;;;;5093143;28;20044;-81
2023/02/14 04:30:00;;;;;;;94.28;26.80;;;1.50;99.90;;;;;;5082930;28;20494;-80
2023/02/14 04:32:26;;;;;;;39.10;23.13;;;1.50;99.90;;;;;;5085858;28;20048;-81
2023/02/14 04:34:53;;;;;;;36.80;21.85;;;1.40;99.90;;;;;;5085321;28;20050;-80
2023/02/14 04:37:20;;;;;;;36.70;19.15;;;1.40;99.90;;;;;;5087620;28;20070;-81
2023/02/14 04:39:47;;;;;;;33.20;19.98;;;1.40;99.90;;;;;;5083395;28;20039;-81
2023/02/14 04:42:14;;;;;;;30.83;19.65;;;1.40;99.90;;;;;;5089904;28;20114;-80
2023/02/14 04:44:41;;;;;;;35.90;20.48;;;1.40;99.90;;;;;;5079800;28;20854;-81
2023/02/14 04:47:08;;;;;;;31.58;19.65;;;1.40;99.90;;;;;;5081327;28;20422;-81
2023/02/14 04:49:35;;;;;;;31.73;19.02;;;1.40;99.90;;;;;;5082240;28;20071;-81
2023/02/14 04:52:03;;;;;;;33.25;18.65;;;1.40;99.90;;;;;;5086816;28;20087;-81
2023/02/14 04:54:30;;;;;;;31.33;19.52;;;1.40;99.90;;;;;;5089872;28;20079;-81
2023/02/14 04:56:56;;;;;;;32.00;19.63;;;1.30;99.90;;;;;;5087385;28;20071;-81
2023/02/14 04:59:23;;;;;;;33.00;18.90;;;1.30;99.90;;;;;;5085479;28;20083;-81
2023/02/14 05:01:51;;;;;;;31.90;18.23;;;1.30;99.90;;;;;;5082563;28;20063;-81
2023/02/14 05:04:18;;;;;;;31.80;19.60;;;1.30;99.90;;;;;;5078923;28;20055;-80
2023/02/14 05:06:45;;;;;;;29.52;18.50;;;1.30;99.90;;;;;;5084572;28;20086;-82
2023/02/14 05:09:12;;;;;;;31.08;18.35;;;1.30;99.90;;;;;;5091666;28;20428;-81
2023/02/14 05:11:39;;;;;;;28.88;17.20;;;1.30;99.90;;;;;;5082579;28;20098;-80
2023/02/14 05:14:05;;;;;;;31.60;18.80;;;1.20;99.90;;;;;;5084212;28;20080;-81
2023/02/14 05:16:32;;;;;;;29.90;17.77;;;1.20;99.90;;;;;;5081922;28;20044;-80
2023/02/14 05:18:59;;;;;;;27.88;16.52;;;1.20;99.90;;;;;;5087745;28;20403;-80
2023/02/14 05:21:27;;;;;;;30.05;16.85;;;1.20;99.90;;;;;;5088273;28;20050;-81
2023/02/14 05:23:54;;;;;;;25.83;16.95;;;1.10;99.90;;;;;;5089112;28;20075;-81
2023/02/14 05:26:20;;;;;;;29.38;18.75;;;1.10;99.90;;;;;;5080713;28;20486;-81
2023/02/14 05:28:47;;;;;;;27.52;15.98;;;1.10;99.90;;;;;;5080528;28;20429;-81
2023/02/14 05:31:13;;;;;;;24.23;14.80;;;1.00;99.90;;;;;;5080628;28;20116;-80
2023/02/14 05:33:40;;;;;;;27.20;16.50;;;1.00;99.90;;;;;;5083930;28;20048;-80
2023/02/14 05:36:07;;;;;;;28.25;16.58;;;1.00;99.90;;;;;;5088434;28;20470;-80
2023/02/14 05:38:34;;;;;;;29.38;16.35;;;1.00;99.90;;;;;;5091391;28;20139;-81
2023/02/14 05:41:01;;;;;;;30.95;17.23;;;1.00;99.90;;;;;;5083452;28;20049;-81
2023/02/14 05:43:29;;;;;;;33.08;18.73;;;1.00;99.90;;;;;;5086477;28;20083;-80
2023/02/14 05:45:56;;;;;;;39.08;19.38;;;1.00;99.90;;;;;;5081066;28;20055;-81
2023/02/14 05:48:23;;;;;;;32.50;18.88;;;1.00;99.90;;;;;;5077520;28;20067;-81
2023/02/14 05:50:50;;;;;;;38.45;21.40;;;1.00;99.90;;;;;;5089921;28;20097;-81
2023/02/14 05:53:17;;;;;;;42.17;23.27;;;1.00;99.90;;;;;;5085832;28;20079;-81
2023/02/14 05:55:44;;;;;;;43.03;21.58;;;1.10;99.90;;;;;;5077497;28;20519;-81
2023/02/14 05:58:11;;;;;;;37.72;20.60;;;1.10;99.90;;;;;;5075102;28;20058;-81
2023/02/14 06:00:38;;;;;;;36.47;18.77;;;1.00;99.90;;;;;;5083009;28;20177;-81
2023/02/14 06:03:07;;;;;;;35.97;20.45;;;1.00;99.90;;;;;;5089940;28;20087;-80
2023/02/14 06:05:34;;;;;;;36.65;19.80;;;1.00;99.90;;;;;;5092225;28;20119;-82
2023/02/14 06:08:00;;;;;;;37.30;20.65;;;1.00;99.90;;;;;;5092826;28;20068;-82
2023/02/14 06:10:27;;;;;;;38.80;20.20;;;1.00;99.90;;;;;;5088757;28;20114;-81
2023/02/14 06:12:54;;;;;;;34.63;20.00;;;0.90;99.90;;;;;;5085168;28;20054;-81
2023/02/14 06:15:22;;;;;;;38.25;20.45;;;0.90;99.90;;;;;;5088051;28;20105;-81
2023/02/14 06:17:55;;;;;;;41.45;20.33;;;0.90;99.90;;;;;;5090126;28;20048;-81
2023/02/14 06:20:23;;;;;;;40.90;21.83;;;0.80;99.90;;;;;;5094519;28;20047;-80
2023/02/14 06:22:51;;;;;;;36.83;20.48;;;0.80;99.90;;;;;;5075803;28;20053;-81
2023/02/14 06:25:18;;;;;;;30.65;17.83;;;0.80;99.90;;;;;;5084898;28;20051;-81
2023/02/14 06:27:45;;;;;;;60.70;28.10;;;0.80;99.90;;;;;;5090726;28;20055;-81
2023/02/14 06:30:15;;;;;;;;;;;0.80;99.90;;;;;;5090084;28;20044;-80
2023/02/14 06:32:42;;;;;;;33.95;17.52;;;0.80;99.90;;;;;;5092630;28;20391;-81
2023/02/14 06:35:09;;;;;;;30.15;16.60;;;0.80;99.90;;;;;;5073768;28;20095;-82
2023/02/14 06:37:37;;;;;;;29.45;16.15;;;0.80;99.90;;;;;;5065385;28;20064;-81
2023/02/14 06:40:05;;;;;;;30.60;16.13;;;0.80;99.90;;;;;;5081862;28;20044;-81
2023/02/14 06:42:31;;;;;;;26.35;16.05;;;0.80;99.90;;;;;;5086276;28;20135;-82
2023/02/14 06:44:58;;;;;;;30.50;15.45;;;0.80;99.90;;;;;;5089814;28;20132;-81
2023/02/14 06:47:25;;;;;;;31.70;17.40;;;0.80;99.90;;;;;;5093608;28;20135;-80
2023/02/14 06:49:51;;;;;;;27.58;15.32;;;0.80;99.90;;;;;;5080053;28;20126;-81
2023/02/14 06:52:18;;;;;;;37.10;17.00;;;0.90;99.90;;;;;;5079083;28;20097;-81
2023/02/14 06:54:45;;;;;;;31.73;17.08;;;0.90;99.90;;;;;;5085023;28;20044;-81
2023/02/14 06:57:12;;;;;;;45.78;20.90;;;1.00;99.90;;;;;;5087138;28;20135;-80
2023/02/14 06:59:39;;;;;;;47.85;21.27;;;1.00;99.90;;;;;;5088482;28;20117;-82
2023/02/14 07:02:05;;;;;;;63.38;23.02;;;1.00;99.90;;;;;;5093700;28;20051;-81
2023/02/14 07:04:32;;;;;;;95.43;26.80;;;1.10;99.90;;;;;;5092393;28;20043;-81
2023/02/14 07:07:00;;;;;;;65.03;26.33;;;1.10;99.90;;;;;;5079309;28;20051;-80
2023/02/14 07:09:27;;;;;;;62.47;25.23;;;1.10;99.90;;;;;;5081420;28;20510;-80
2023/02/14 07:11:53;;;;;;;54.90;22.98;;;1.20;99.90;;;;;;5086855;28;20044;-82
2023/02/14 07:14:20;;;;;;;57.55;22.80;;;1.20;99.90;;;;;;5091134;28;20051;-81
2023/02/14 07:16:47;;;;;;;54.78;22.05;;;1.20;99.90;;;;;;5092734;28;20131;-81
2023/02/14 07:19:13;;;;;;;65.22;25.98;;;1.20;99.90;;;;;;5082316;28;20052;-81
2023/02/14 07:21:40;;;;;;;56.47;24.48;;;1.30;99.90;;;;;;5080890;28;20131;-81
2023/02/14 07:24:07;;;;;;;65.32;32.25;;;1.30;99.90;;;;;;5083755;28;20048;-81
2023/02/14 07:26:33;;;;;;;73.30;33.83;;;1.30;99.90;;;;;;5085343;28;20040;-81
2023/02/14 07:29:00;;;;;;;80.72;35.60;;;1.40;99.90;;;;;;5089053;28;20131;-80
2023/02/14 07:31:27;;;;;;;76.43;36.35;;;1.40;99.90;;;;;;5092278;28;20131;-80
2023/02/14 07:33:54;;;;;;;97.43;30.08;;;1.50;99.90;;;;;;5081381;28;20048;-81
2023/02/14 07:36:20;;;;;;;67.25;27.60;;;1.50;99.90;;;;;;5088292;28;20140;-81
2023/02/14 07:38:47;;;;;;;70.70;26.55;;;1.50;99.90;;;;;;5088547;28;20044;-81
2023/02/14 07:41:14;;;;;;;123.60;28.00;;;1.60;99.90;;;;;;5087965;28;20050;-81
2023/02/14 07:43:41;;;;;;;103.97;27.25;;;1.60;99.90;;;;;;5090759;28;20123;-81
2023/02/14 07:46:08;;;;;;;83.60;27.50;;;1.70;99.90;;;;;;5083301;28;20084;-80
2023/02/14 07:48:34;;;;;;;140.65;29.50;;;1.70;99.90;;;;;;5078476;28;20041;-81
2023/02/14 07:51:01;;;;;;;74.75;26.60;;;1.70;99.90;;;;;;5079385;28;20053;-81
2023/02/14 07:53:29;;;;;;;67.43;25.55;;;1.80;99.90;;;;;;5082767;28;20044;-81
2023/02/14 07:55:56;;;;;;;71.07;25.70;;;1.80;99.90;;;;;;5086357;28;20135;-80
2023/02/14 07:58:23;;;;;;;77.65;27.58;;;1.90;99.90;;;;;;5101305;28;20096;-80
2023/02/14 08:00:50;;;;;;;81.82;28.10;;;1.90;99.90;;;;;;5080795;28;20041;-80
2023/02/14 08:03:17;;;;;;;99.18;30.30;;;2.00;99.90;;;;;;5082555;28;20044;-80
2023/02/14 08:05:55;;;;;;;85.25;31.20;;;2.00;99.90;;;;;;5087398;28;20518;-80
2023/02/14 08:08:28;;;;;;;72.20;31.63;;;2.00;99.90;;;;;;5083959;28;20459;-80
2023/02/14 08:10:55;;;;;;;138.32;32.22;;;2.10;99.90;;;;;;5089902;28;20046;-81
2023/02/14 08:13:22;;;;;;;76.20;33.65;;;2.10;99.90;;;;;;5095630;28;20097;-81
2023/02/14 08:16:03;;;;;;;102.82;35.90;;;2.20;99.90;;;;;;5079250;28;20054;-81
2023/02/14 08:18:40;;;;;;;131.25;32.75;;;2.20;99.90;;;;;;5076340;28;20076;-80
2023/02/14 08:21:09;;;;;;;63.80;33.20;;;2.20;99.90;;;;;;5084118;28;20517;-81
2023/02/14 08:23:37;;;;;;;59.90;32.53;;;2.30;99.90;;;;;;5092278;28;20046;-81
2023/02/14 08:26:04;;;;;;;70.53;30.17;;;2.30;99.90;;;;;;5093411;28;20048;-81
2023/02/14 08:28:31;;;;;;;67.43;33.30;;;2.30;99.90;;;;;;5090809;28;20123;-81
2023/02/14 08:30:58;;;;;;;105.30;31.98;;;2.40;99.90;;;;;;5085177;28;20052;-81
2023/02/14 08:33:26;;;;;;;109.35;32.63;;;2.40;99.90;;;;;;5076692;28;20049;-81
2023/02/14 08:35:53;;;;;;;84.72;30.08;;;2.50;99.90;;;;;;5079270;28;20083;-81
2023/02/14 08:38:20;;;;;;;63.25;27.45;;;2.50;99.90;;;;;;5079491;28;20056;-82
2023/02/14 08:40:47;;;;;;;74.72;25.77;;;2.60;99.90;;;;;;5093273;28;20052;-81
2023/02/14 08:43:14;;;;;;;107.60;28.63;;;2.60;99.90;;;;;;5080772;28;20485;-80
2023/02/14 08:45:43;;;;;;;69.10;25.88;;;2.70;99.90;;;;;;5078152;28;20068;-80
2023/02/14 08:48:11;;;;;;;83.97;24.30;;;2.70;99.90;;;;;;5075611;28;20112;-80
2023/02/14 08:50:39;;;;;;;66.75;29.42;;;2.80;99.90;;;;;;5083109;28;20036;-81
2023/02/14 08:53:08;;;;;;;49.00;28.60;;;2.80;99.90;;;;;;5083077;28;20096;-81
2023/02/14 08:55:35;;;;;;;71.40;31.17;;;2.90;99.90;;;;;;5089934;28;20402;-81
2023/02/14 08:58:02;;;;;;;72.60;30.05;;;3.00;99.90;;;;;;5079193;28;20059;-80
2023/02/14 09:00:30;;;;;;;57.28;26.13;;;3.00;99.90;;;;;;5068906;28;20131;-79
2023/02/14 09:02:57;;;;;;;79.32;26.52;;;3.10;99.90;;;;;;5077847;28;20048;-80
2023/02/14 09:05:25;;;;;;;69.85;27.77;;;3.10;99.90;;;;;;5080714;28;20051;-79
2023/02/14 09:07:54;;;;;;;65.20;26.98;;;3.10;99.90;;;;;;5069266;28;20053;-80
2023/02/14 09:10:21;;;;;;;53.90;25.17;;;3.20;99.90;;;;;;5080643;28;20064;-80
2023/02/14 09:12:48;;;;;;;91.18;25.50;;;3.20;99.90;;;;;;5078728;28;20123;-80
2023/02/14 09:15:15;;;;;;;58.50;27.30;;;3.20;99.90;;;;;;5078680;28;20044;-80
2023/02/14 09:17:41;;;;;;;52.42;27.50;;;3.30;99.90;;;;;;5074539;28;20048;-80
2023/02/14 09:20:10;;;;;;;44.55;25.83;;;3.40;99.90;;;;;;5076733;28;20054;-81
2023/02/14 09:22:37;;;;;;;71.93;26.70;;;3.40;99.90;;;;;;5082485;28;20048;-80
2023/02/14 09:25:05;;;;;;;59.40;26.20;;;3.50;99.90;;;;;;5079581;28;20521;-80
2023/02/14 09:27:31;;;;;;;85.60;27.10;;;3.50;99.90;;;;;;5072203;28;20129;-81
2023/02/14 09:29:58;;;;;;;98.53;28.73;;;3.50;99.90;;;;;;5079663;28;20047;-80
2023/02/14 09:32:25;;;;;;;45.05;24.88;;;3.60;99.90;;;;;;5076557;28;20044;-81
2023/02/14 09:34:52;;;;;;;44.80;26.58;;;3.60;99.90;;;;;;5068940;28;20535;-81
2023/02/14 09:40:05;;;;;;;53.17;27.20;;;3.70;99.90;;;;;;5075725;28;20048;-80
2023/02/14 09:43:17;;;;;;;46.13;26.83;;;3.70;99.90;;;;;;5077119;28;20053;-79
2023/02/14 09:45:51;;;;;;;47.53;24.95;;;3.70;99.90;;;;;;5070989;28;20111;-81
2023/02/14 09:48:32;;;;;;;42.40;25.45;;;3.80;99.90;;;;;;5084946;28;20051;-80
2023/02/14 09:51:04;;;;;;;45.40;26.17;;;3.80;99.90;;;;;;5082448;28;20048;-81
2023/02/14 09:53:39;;;;;;;48.65;25.50;;;3.80;99.90;;;;;;5076234;28;20037;-81
2023/02/14 09:56:31;;;;;;;48.42;25.63;;;3.90;99.90;;;;;;5072928;28;20383;-81
2023/02/14 09:59:25;;;;;;;41.55;25.55;;;3.90;99.90;;;;;;5081066;28;20048;-81
2023/02/14 10:02:20;;;;;;;65.95;28.38;;;4.00;99.90;;;;;;5088988;28;20052;-80
2023/02/14 10:05:17;;;;;;;38.63;26.52;;;3.90;99.90;;;;;;5086284;28;20051;-80
2023/02/14 10:08:07;;;;;;;47.38;27.13;;;4.00;99.90;;;;;;5080052;28;20071;-79
2023/02/14 10:10:43;;;;;;;41.47;24.55;;;4.10;99.90;;;;;;5078870;28;20102;-81
2023/02/14 10:13:30;;;;;;;38.70;25.17;;;4.10;99.90;;;;;;5084658;28;20048;-81
2023/02/14 10:16:17;;;;;;;42.85;27.27;;;4.20;99.90;;;;;;5087464;28;20044;-81
2023/02/14 10:19:16;;;;;;;43.38;26.70;;;4.20;99.90;;;;;;5092477;28;20509;-81
2023/02/14 10:21:59;;;;;;;46.25;28.23;;;4.30;99.90;;;;;;5084227;28;20104;-81
2023/02/14 10:24:34;;;;;;;50.17;29.50;;;4.30;99.90;;;;;;5068756;28;20516;-80
2023/02/14 10:27:09;;;;;;;49.75;28.13;;;4.30;99.90;;;;;;5073539;28;20124;-81
2023/02/14 10:29:36;;;;;;;44.40;27.77;;;4.30;99.90;;;;;;5080237;28;20509;-80
2023/02/14 10:32:08;;;;;;;45.90;28.73;;;4.20;99.90;;;;;;5091032;28;20067;-81
2023/02/14 10:34:46;;;;;;;46.10;28.25;;;4.20;99.90;;;;;;5088022;28;20092;-81
2023/02/14 10:37:51;;;;;;;45.15;27.27;;;4.10;99.90;;;;;;5080518;28;20097;-80
2023/02/14 10:40:27;;;;;;;47.33;29.00;;;4.10;99.90;;;;;;5072100;28;20071;-81
2023/02/14 10:43:21;;;;;;;47.15;30.25;;;4.10;99.90;;;;;;5090344;28;20058;-80
2023/02/14 10:45:51;;;;;;;46.05;29.40;;;4.00;99.90;;;;;;5083409;28;20047;-79
2023/02/14 10:48:36;;;;;;;50.00;30.17;;;4.00;99.90;;;;;;5083804;28;20826;-80
2023/02/14 10:51:19;;;;;;;48.03;31.48;;;4.00;99.90;;;;;;5075375;28;20505;-81
2023/02/14 10:53:59;;;;;;;57.00;34.05;;;3.90;99.90;;;;;;5079841;28;20044;-80
2023/02/14 10:56:36;;;;;;;68.30;48.30;;;3.90;99.90;;;;;;5084668;28;20040;-81
2023/02/14 10:59:18;;;;;;;65.75;47.80;;;3.80;99.90;;;;;;5091572;28;20051;-80
2023/02/14 11:01:46;;;;;;;57.83;43.67;;;3.80;99.90;;;;;;5101828;28;20037;-81
2023/02/14 11:04:15;;;;;;;49.17;31.52;;;3.80;99.90;;;;;;5080108;28;21845;-81
2023/02/14 11:06:42;;;;;;;46.25;30.70;;;3.80;99.90;;;;;;5086788;28;20131;-81
2023/02/14 11:09:11;;;;;;;45.83;29.52;;;3.80;99.90;;;;;;5088237;28;20044;-81
2023/02/14 11:11:43;;;;;;;53.03;35.10;;;3.80;99.90;;;;;;5082955;28;20053;-81
2023/02/14 11:14:27;;;;;;;47.20;32.83;;;3.80;99.90;;;;;;5074448;28;20106;-81
2023/02/14 11:16:55;;;;;;;40.55;28.42;;;3.80;99.90;;;;;;5090835;28;20151;-80
2023/02/14 11:19:29;;;;;;;46.63;27.33;;;3.80;99.90;;;;;;5081090;28;20139;-81
2023/02/14 11:21:58;;;;;;;41.28;26.30;;;3.90;99.90;;;;;;5086252;28;20052;-80
2023/02/14 11:24:38;;;;;;;43.23;26.90;;;3.90;99.90;;;;;;5096885;28;20052;-81
2023/02/14 11:27:10;;;;;;;43.85;30.33;;;3.90;99.90;;;;;;5095348;28;20514;-81
2023/02/14 11:29:40;;;;;;;45.42;31.35;;;3.90;99.90;;;;;;5083769;28;20113;-81
2023/02/14 11:32:12;;;;;;;40.50;28.50;;;3.90;99.90;;;;;;5069107;28;20045;-80
2023/02/14 11:34:53;;;;;;;43.50;30.17;;;3.90;99.90;;;;;;5077766;28;20464;-81
2023/02/14 11:37:23;;;;;;;39.75;27.65;;;4.00;99.90;;;;;;5079810;28;20071;-81
2023/02/14 11:39:53;;;;;;;40.15;26.33;;;4.00;99.90;;;;;;5078842;28;20135;-81
2023/02/14 11:42:35;;;;;;;46.30;32.55;;;4.00;99.90;;;;;;5087655;28;20052;-81
2023/02/14 11:45:04;;;;;;;53.28;36.58;;;4.10;99.90;;;;;;5087557;28;20109;-81
2023/02/14 11:47:33;;;;;;;39.67;29.13;;;4.10;99.90;;;;;;5075712;28;20666;-81
2023/02/14 11:50:09;;;;;;;51.00;34.47;;;4.10;99.90;;;;;;5079197;28;20044;-79
2023/02/14 11:52:51;;;;;;;45.55;33.10;;;4.10;99.90;;;;;;5080755;28;20040;-80
2023/02/14 11:55:25;;;;;;;46.28;30.00;;;4.20;99.90;;;;;;5082157;28;20131;-81
2023/02/14 11:57:53;;;;;;;39.75;27.08;;;4.20;99.90;;;;;;5083048;28;20052;-79
2023/02/14 12:00:22;;;;;;;44.83;28.30;;;4.20;99.90;;;;;;5068604;28;20063;-81
2023/02/14 12:02:50;;;;;;;46.72;28.40;;;4.30;99.90;;;;;;5069083;28;20460;-80
2023/02/14 12:05:25;;;;;;;46.53;29.00;;;4.30;99.90;;;;;;5074440;28;20131;-83
2023/02/14 12:07:56;;;;;;;45.67;28.75;;;4.30;99.90;;;;;;5077507;28;20424;-77
2023/02/14 12:10:27;;;;;;;;;;;4.30;99.90;;;;;;5085649;28;20147;-80
2023/02/14 12:12:54;;;;;;;51.33;31.73;;;4.30;99.90;;;;;;5079629;28;19920;-80
2023/02/14 12:15:39;;;;;;;47.80;30.88;;;4.40;99.90;;;;;;5086691;28;20054;-80
2023/02/14 12:18:21;;;;;;;50.75;29.92;;;4.40;99.90;;;;;;5084131;28;20124;-79
2023/02/14 12:21:02;;;;;;;45.72;28.23;;;4.40;99.90;;;;;;5078288;28;20471;-81
2023/02/14 12:23:44;;;;;;;;;;;4.50;99.90;;;;;;5083138;28;20063;-81
2023/02/14 12:26:10;;;;;;;48.40;28.88;;;4.50;99.90;;;;;;5089810;28;19924;-80
2023/02/14 12:28:48;;;;;;;44.60;28.95;;;4.60;99.90;;;;;;5088739;28;20044;-80
2023/02/14 12:31:16;;;;;;;44.95;28.88;;;4.60;99.90;;;;;;5078663;28;20072;-80
2023/02/14 12:33:43;;;;;;;50.50;30.88;;;4.60;99.90;;;;;;5080678;28;20064;-79
2023/02/14 12:36:48;;;;;;;51.35;31.45;;;4.70;99.90;;;;;;5074801;28;20052;-80
2023/02/14 12:39:14;;;;;;;50.70;29.90;;;4.70;99.90;;;;;;5078795;28;20043;-79
2023/02/14 12:42:16;;;;;;;40.67;27.75;;;4.70;99.90;;;;;;5082278;28;20048;-79
2023/02/14 12:44:56;;;;;;;46.33;28.80;;;4.80;99.90;;;;;;5039062;28;20071;-80
2023/02/14 12:47:56;;;;;;;43.63;27.85;;;4.80;99.90;;;;;;5072750;28;20135;-81
2023/02/14 12:50:41;;;;;;;41.78;28.23;;;4.90;99.90;;;;;;5083558;28;20608;-81
2023/02/14 12:53:34;;;;;;;42.90;28.35;;;5.00;99.90;;;;;;5078723;28;20249;-80
2023/02/14 12:56:31;;;;;;;43.15;28.75;;;5.10;99.90;;;;;;5080577;28;20414;-81
2023/02/14 12:59:07;;;;;;;41.13;26.27;;;5.10;99.90;;;;;;5071980;28;20577;-80
2023/02/14 13:02:04;;;;;;;41.53;25.42;;;5.20;99.90;;;;;;5072939;28;20041;-81
2023/02/14 13:04:52;;;;;;;42.05;26.08;;;5.30;99.90;;;;;;5080647;28;20040;-81
2023/02/14 13:07:37;;;;;;;40.50;26.65;;;5.30;99.90;;;;;;5071597;28;20079;-82
2023/02/14 13:10:13;;;;;;;42.85;28.45;;;5.30;99.90;;;;;;5086771;28;20482;-82
2023/02/14 13:12:49;;;;;;;43.75;27.50;;;5.40;99.90;;;;;;5077590;28;20051;-82
2023/02/14 13:15:44;;;;;;;41.30;27.88;;;5.30;99.90;;;;;;5083571;28;20050;-82
2023/02/14 13:18:31;;;;;;;41.50;27.15;;;5.40;99.90;;;;;;5087164;28;20083;-82
2023/02/14 13:21:01;;;;;;;44.78;28.73;;;5.40;99.90;;;;;;5092689;28;20056;-82
2023/02/14 13:23:36;;;;;;;44.10;28.50;;;5.40;99.90;;;;;;5096194;28;20044;-82